createdAt,value
2023-12-30T00:02:25.912Z,89.44
2023-12-30T00:04:52.487Z,89.03
2023-12-30T00:07:19.093Z,89.94
2023-12-30T00:09:45.680Z,89.94
2023-12-30T00:12:13.077Z,90.27
2023-12-30T00:14:39.566Z,90.20
2023-12-30T00:17:06.152Z,90.04
2023-12-30T00:19:36.242Z,90.68
2023-12-30T00:22:03.830Z,90.93
2023-12-30T00:24:30.626Z,90.94
2023-12-30T00:26:57.385Z,90.43
2023-12-30T00:29:23.881Z,91.16
2023-12-30T00:31:50.474Z,91.57
2023-12-30T00:34:17.125Z,92.65
2023-12-30T00:36:47.593Z,93.24
2023-12-30T00:39:14.449Z,92.96
2023-12-30T00:41:41.321Z,91.89
2023-12-30T00:44:08.402Z,91.38
2023-12-30T00:46:35.046Z,91.90
2023-12-30T00:49:01.804Z,91.09
2023-12-30T00:51:28.591Z,91.70
2023-12-30T00:53:55.099Z,90.78
2023-12-30T00:56:21.635Z,90.85
2023-12-30T00:58:48.194Z,90.82
2023-12-30T01:01:14.911Z,91.02
2023-12-30T01:03:42.169Z,90.68
2023-12-30T01:06:09.249Z,90.61
2023-12-30T01:08:36.834Z,90.52
2023-12-30T01:11:05.068Z,91.07
2023-12-30T01:13:31.904Z,90.92
2023-12-30T01:15:58.718Z,88.81
2023-12-30T01:18:26.315Z,89.14
2023-12-30T01:20:53.083Z,88.17
2023-12-30T01:23:19.676Z,88.90
2023-12-30T01:25:46.204Z,88.52
2023-12-30T01:28:12.728Z,87.87
2023-12-30T01:30:39.347Z,87.93
2023-12-30T01:33:06.803Z,89.09
2023-12-30T01:35:34.014Z,89.52
2023-12-30T01:38:03.208Z,89.56
2023-12-30T01:40:31.739Z,89.43
2023-12-30T01:42:58.492Z,89.65
2023-12-30T01:45:25.205Z,89.89
2023-12-30T01:47:52.032Z,89.48
2023-12-30T01:50:19.105Z,89.41
2023-12-30T01:52:48.458Z,90.70
2023-12-30T01:55:16.974Z,89.85
2023-12-30T01:57:45.598Z,89.91
2023-12-30T02:00:21.213Z,89.56
2023-12-30T02:02:49.079Z,89.94
2023-12-30T02:08:56.137Z,89.35
2023-12-30T02:11:23.536Z,89.57
2023-12-30T02:13:50.229Z,88.93
2023-12-30T02:16:16.823Z,89.30
2023-12-30T02:18:43.492Z,89.79
2023-12-30T02:21:10.104Z,89.27
2023-12-30T02:23:36.798Z,89.91
2023-12-30T02:26:03.714Z,89.73
2023-12-30T02:28:30.475Z,89.61
2023-12-30T02:30:57.188Z,88.92
2023-12-30T02:33:23.889Z,89.51
2023-12-30T02:35:50.545Z,87.72
2023-12-30T02:38:17.717Z,88.64
2023-12-30T02:40:45.534Z,88.31
2023-12-30T02:43:12.474Z,88.63
2023-12-30T02:45:39.064Z,87.39
2023-12-30T02:48:06.250Z,86.88
2023-12-30T02:50:32.873Z,87.24
2023-12-30T02:52:59.602Z,86.10
2023-12-30T02:55:26.250Z,88.10
2023-12-30T02:57:52.968Z,87.30
2023-12-30T03:00:20.634Z,86.57
2023-12-30T03:02:47.305Z,85.50
2023-12-30T03:05:14.341Z,86.36
2023-12-30T03:07:41.193Z,85.73
2023-12-30T03:10:08.351Z,85.83
2023-12-30T03:12:36.695Z,84.89
2023-12-30T03:15:03.328Z,84.70
2023-12-30T03:17:30.179Z,86.01
2023-12-30T03:19:56.833Z,85.81
2023-12-30T03:22:23.406Z,85.63
2023-12-30T03:24:50.161Z,84.02
2023-12-30T03:27:16.744Z,84.85
2023-12-30T03:29:44.868Z,85.64
2023-12-30T03:32:12.278Z,84.85
2023-12-30T03:34:38.871Z,84.68
2023-12-30T03:37:05.477Z,85.32
2023-12-30T03:39:32.207Z,85.49
2023-12-30T03:41:58.734Z,85.38
2023-12-30T03:44:25.344Z,84.73
2023-12-30T03:46:51.898Z,85.71
2023-12-30T03:49:18.528Z,85.75
2023-12-30T03:51:48.359Z,85.22
2023-12-30T03:54:14.956Z,85.71
2023-12-30T03:56:41.625Z,84.43
2023-12-30T03:59:08.138Z,84.72
2023-12-30T04:01:37.448Z,84.94
2023-12-30T04:04:04.221Z,85.44
2023-12-30T04:06:31.096Z,84.13
2023-12-30T04:08:57.653Z,83.60
2023-12-30T04:11:24.927Z,84.34
2023-12-30T04:13:51.469Z,83.42
2023-12-30T04:16:18.169Z,82.77
2023-12-30T04:18:44.764Z,82.10
2023-12-30T04:21:12.177Z,81.09
2023-12-30T04:23:39.543Z,81.08
2023-12-30T04:26:06.079Z,80.85
2023-12-30T04:28:33.261Z,79.10
2023-12-30T04:31:01.203Z,79.46
2023-12-30T04:33:28.714Z,78.56
2023-12-30T04:35:55.347Z,78.68
2023-12-30T04:38:21.868Z,78.59
2023-12-30T04:40:48.365Z,78.71
2023-12-30T04:43:15.102Z,78.05
2023-12-30T04:45:42.904Z,78.46
2023-12-30T04:48:09.508Z,78.17
2023-12-30T04:50:36.279Z,77.82
2023-12-30T04:53:03.261Z,78.06
2023-12-30T04:55:31.000Z,78.21
2023-12-30T04:57:58.319Z,78.60
2023-12-30T05:00:24.884Z,79.03
2023-12-30T05:02:51.603Z,80.00
2023-12-30T05:05:18.248Z,79.56
2023-12-30T05:07:44.924Z,79.29
2023-12-30T05:10:12.099Z,79.83
2023-12-30T05:12:38.902Z,79.11
2023-12-30T05:15:06.048Z,79.24
2023-12-30T05:17:34.096Z,78.55
2023-12-30T05:20:01.817Z,79.04
2023-12-30T05:22:28.485Z,77.61
2023-12-30T05:24:55.423Z,77.43
2023-12-30T05:27:22.003Z,76.76
2023-12-30T05:29:48.646Z,77.09
2023-12-30T05:32:15.214Z,77.82
2023-12-30T05:34:41.833Z,77.64
2023-12-30T05:37:08.536Z,76.29
2023-12-30T05:39:35.209Z,77.74
2023-12-30T05:42:01.758Z,76.99
2023-12-30T05:44:28.279Z,77.51
2023-12-30T05:46:54.818Z,77.83
2023-12-30T05:49:21.461Z,77.25
2023-12-30T05:51:48.074Z,77.76
2023-12-30T05:54:14.596Z,77.12
2023-12-30T05:56:41.161Z,77.67
2023-12-30T05:59:10.078Z,77.50
2023-12-30T06:01:44.907Z,78.38
2023-12-30T06:04:11.575Z,78.68
2023-12-30T06:06:38.408Z,77.87
2023-12-30T06:09:04.953Z,77.42
2023-12-30T06:11:31.588Z,77.63
2023-12-30T06:13:59.713Z,77.38
2023-12-30T06:16:26.330Z,77.31
2023-12-30T06:18:52.978Z,78.03
2023-12-30T06:21:19.676Z,77.99
2023-12-30T06:23:47.007Z,78.32
2023-12-30T06:26:13.817Z,77.96
2023-12-30T06:28:40.664Z,78.82
2023-12-30T06:31:07.496Z,77.92
2023-12-30T06:33:35.114Z,78.00
2023-12-30T06:36:01.687Z,78.77
2023-12-30T06:38:28.221Z,78.83
2023-12-30T06:40:54.793Z,78.04
2023-12-30T06:43:21.488Z,78.29
2023-12-30T06:45:48.207Z,77.82
2023-12-30T06:48:14.817Z,77.43
2023-12-30T06:50:41.450Z,77.44
2023-12-30T06:53:07.935Z,77.64
2023-12-30T06:55:38.780Z,76.92
2023-12-30T06:58:09.743Z,77.10
2023-12-30T07:00:36.740Z,76.65
2023-12-30T07:03:03.825Z,76.75
2023-12-30T07:05:36.998Z,77.23
2023-12-30T07:08:03.968Z,78.46
2023-12-30T07:10:30.561Z,78.78
2023-12-30T07:12:57.182Z,78.10
2023-12-30T07:15:23.739Z,77.99
2023-12-30T07:17:50.623Z,77.76
2023-12-30T07:21:23.777Z,78.36
2023-12-30T07:23:50.585Z,78.50
2023-12-30T07:26:18.012Z,78.08
2023-12-30T07:28:44.576Z,77.75
2023-12-30T07:31:11.511Z,77.72
2023-12-30T07:33:38.911Z,78.54
2023-12-30T07:36:07.277Z,78.62
2023-12-30T07:38:34.159Z,78.37
2023-12-30T07:41:00.966Z,79.02
2023-12-30T07:43:27.588Z,78.67
2023-12-30T07:45:55.008Z,78.28
2023-12-30T07:48:21.791Z,78.17
2023-12-30T07:50:48.402Z,78.94
2023-12-30T07:53:15.163Z,79.74
2023-12-30T07:55:41.751Z,79.24
2023-12-30T07:58:08.375Z,78.91
2023-12-30T08:00:35.356Z,79.87
2023-12-30T08:03:02.914Z,80.21
2023-12-30T08:05:29.552Z,78.93
2023-12-30T08:07:57.054Z,79.10
2023-12-30T08:10:24.565Z,79.72
2023-12-30T08:12:51.727Z,79.47
2023-12-30T08:15:18.478Z,79.96
2023-12-30T08:17:45.230Z,79.10
2023-12-30T08:20:12.585Z,79.79
2023-12-30T08:22:39.291Z,79.57
2023-12-30T08:25:06.715Z,78.72
2023-12-30T08:27:33.325Z,78.45
2023-12-30T08:29:59.944Z,78.59
2023-12-30T08:32:26.558Z,78.18
2023-12-30T08:34:55.311Z,78.05
2023-12-30T08:37:22.852Z,77.78
2023-12-30T08:39:49.490Z,77.38
2023-12-30T08:42:16.083Z,77.85
2023-12-30T08:44:45.134Z,77.24
2023-12-30T08:47:12.345Z,76.92
2023-12-30T08:49:39.461Z,76.67
2023-12-30T08:52:06.493Z,76.15
2023-12-30T08:54:33.533Z,76.04
2023-12-30T08:57:00.253Z,76.50
2023-12-30T08:59:26.989Z,75.92
2023-12-30T09:01:53.806Z,75.84
2023-12-30T09:04:20.977Z,76.19
2023-12-30T09:06:48.721Z,76.53
2023-12-30T09:09:15.297Z,75.20
2023-12-30T09:11:44.000Z,74.14
2023-12-30T09:14:10.704Z,74.55
2023-12-30T09:16:37.597Z,74.63
2023-12-30T09:19:05.176Z,73.67
2023-12-30T09:21:31.927Z,73.03
2023-12-30T09:23:58.949Z,73.58
2023-12-30T09:26:26.392Z,73.05
2023-12-30T09:28:53.410Z,72.88
2023-12-30T09:31:26.120Z,72.66
2023-12-30T09:33:52.818Z,72.68
2023-12-30T09:36:19.598Z,72.22
2023-12-30T09:38:46.136Z,71.73
2023-12-30T09:41:14.355Z,72.27
2023-12-30T09:43:42.861Z,71.80
2023-12-30T09:46:10.599Z,71.89
2023-12-30T09:48:38.256Z,72.42
2023-12-30T09:51:05.530Z,72.04
2023-12-30T09:53:32.745Z,71.58
2023-12-30T09:56:00.081Z,71.59
2023-12-30T09:58:26.652Z,72.30
2023-12-30T10:00:53.485Z,71.72
2023-12-30T10:03:21.001Z,71.59
2023-12-30T10:05:48.509Z,71.67
2023-12-30T10:08:16.030Z,71.35
2023-12-30T10:10:44.625Z,71.38
2023-12-30T10:13:13.390Z,71.55
2023-12-30T10:15:41.505Z,70.94
2023-12-30T10:18:10.556Z,70.98
2023-12-30T10:20:44.923Z,70.71
2023-12-30T10:23:11.900Z,70.41
2023-12-30T10:25:38.930Z,70.81
2023-12-30T10:28:05.990Z,70.09
2023-12-30T10:30:33.153Z,70.14
2023-12-30T10:33:09.011Z,70.04
2023-12-30T10:35:35.949Z,70.25
2023-12-30T10:38:05.059Z,70.08
2023-12-30T10:40:32.349Z,70.01
2023-12-30T10:42:59.079Z,69.69
2023-12-30T10:45:25.616Z,70.20
2023-12-30T10:47:55.409Z,70.00
2023-12-30T10:50:24.354Z,69.46
2023-12-30T10:53:08.544Z,69.87
2023-12-30T10:55:36.477Z,69.47
2023-12-30T10:58:23.675Z,69.48
2023-12-30T11:00:57.261Z,69.33
2023-12-30T11:03:25.973Z,68.94
2023-12-30T12:53:42.740Z,67.16
2023-12-30T12:56:09.967Z,67.84
2023-12-30T13:01:11.987Z,67.29
2023-12-30T13:16:45.383Z,67.52
2023-12-30T13:19:12.618Z,67.75
2023-12-30T13:35:09.405Z,67.96
2023-12-30T13:40:26.248Z,68.15
2023-12-30T13:42:55.084Z,68.03
2023-12-30T13:45:23.151Z,68.35
2023-12-30T13:55:48.672Z,68.59
2023-12-30T14:13:02.189Z,69.48
2023-12-30T14:46:28.066Z,72.56
2023-12-30T15:22:36.148Z,74.81
2023-12-30T15:27:37.943Z,75.07
2023-12-30T15:30:05.717Z,75.63
2023-12-30T15:32:32.399Z,75.71
2023-12-30T16:10:05.740Z,77.95
2023-12-30T16:12:32.383Z,77.17
2023-12-30T16:33:47.517Z,75.88
2023-12-30T17:43:42.494Z,79.34
2023-12-30T17:56:56.564Z,80.23
2023-12-30T18:21:48.399Z,80.59
2023-12-30T18:50:13.268Z,80.65
2023-12-30T18:52:40.714Z,80.77
2023-12-30T18:57:42.465Z,80.92
2023-12-30T19:02:51.292Z,80.72
2023-12-30T19:05:18.066Z,80.55
2023-12-30T19:10:20.727Z,80.71
2023-12-30T20:09:21.616Z,81.00
2023-12-30T20:14:37.575Z,80.94
2023-12-30T20:17:04.572Z,80.80
2023-12-30T20:19:31.214Z,81.13
2023-12-30T20:21:57.932Z,81.06
2023-12-30T20:24:28.315Z,81.07
2023-12-30T20:26:57.800Z,81.37
2023-12-30T20:29:25.462Z,80.92
2023-12-30T20:31:55.087Z,81.24
2023-12-30T20:34:23.552Z,81.24
2023-12-30T20:36:51.327Z,80.31
2023-12-30T20:39:17.881Z,80.35
2023-12-30T20:41:44.405Z,80.08
2023-12-30T20:44:11.238Z,80.18
2023-12-30T20:46:37.763Z,80.30
2023-12-30T20:49:07.063Z,79.60
2023-12-30T20:51:33.584Z,79.54
2023-12-30T20:54:01.928Z,79.55
2023-12-30T20:56:28.433Z,79.17
2023-12-30T20:58:55.117Z,79.45
2023-12-30T21:01:22.282Z,78.49
2023-12-30T21:03:49.829Z,79.20
2023-12-30T21:06:16.719Z,79.21
2023-12-30T21:08:47.176Z,79.69
2023-12-30T21:11:14.611Z,79.48
2023-12-30T21:13:42.391Z,79.43
2023-12-30T21:16:15.951Z,79.67
2023-12-30T21:18:42.574Z,79.71
2023-12-30T21:21:09.102Z,79.54
2023-12-30T21:23:35.662Z,79.40
2023-12-30T21:26:03.978Z,79.33
2023-12-30T21:28:31.777Z,79.28
2023-12-30T21:30:59.728Z,79.05
2023-12-30T21:33:26.366Z,79.43
2023-12-30T21:35:56.513Z,79.65
2023-12-30T21:38:23.964Z,79.64
2023-12-30T21:40:50.534Z,79.73
2023-12-30T21:43:17.133Z,79.38
2023-12-30T21:45:43.860Z,79.52
2023-12-30T21:48:12.431Z,79.90
2023-12-30T21:50:39.633Z,79.80
2023-12-30T21:53:07.576Z,79.79
2023-12-30T21:55:34.145Z,80.01
2023-12-30T21:58:01.333Z,79.96
2023-12-30T22:00:28.011Z,79.71
2023-12-30T22:02:54.561Z,79.94
2023-12-30T22:05:21.299Z,80.35
2023-12-30T22:07:47.896Z,80.55
2023-12-30T22:10:14.912Z,80.75
2023-12-30T22:12:41.645Z,81.03
2023-12-30T22:15:08.600Z,80.80
2023-12-30T22:17:37.029Z,80.68
2023-12-30T22:20:05.904Z,81.37
2023-12-30T22:22:32.611Z,81.11
2023-12-30T22:25:03.073Z,81.57
2023-12-30T22:27:30.909Z,81.49
2023-12-30T22:30:01.631Z,80.88
2023-12-30T22:32:29.099Z,81.10
2023-12-30T22:34:55.729Z,80.98
2023-12-30T22:37:22.613Z,81.54
2023-12-30T22:39:49.315Z,81.73
2023-12-30T22:42:16.011Z,81.87
2023-12-30T22:44:42.628Z,82.55
2023-12-30T22:47:09.311Z,82.14
2023-12-30T22:49:37.521Z,82.74
2023-12-30T22:52:05.312Z,82.61
2023-12-30T22:54:32.768Z,82.65
2023-12-30T22:56:59.323Z,82.80
2023-12-30T22:59:26.620Z,82.75
2023-12-30T23:01:53.168Z,82.49
2023-12-30T23:04:19.831Z,82.89
2023-12-30T23:06:48.761Z,83.06
2023-12-30T23:09:15.395Z,83.03
2023-12-30T23:11:42.110Z,83.17
2023-12-30T23:14:08.787Z,83.23
2023-12-30T23:16:35.431Z,83.88
2023-12-30T23:19:03.499Z,83.94
2023-12-30T23:21:33.429Z,83.98
2023-12-30T23:23:59.945Z,84.47
2023-12-30T23:26:27.630Z,84.44
2023-12-30T23:28:54.935Z,84.52
2023-12-30T23:31:21.576Z,84.34
2023-12-30T23:33:48.162Z,84.37
2023-12-30T23:36:14.767Z,84.44
2023-12-30T23:38:47.416Z,84.56
2023-12-30T23:41:16.879Z,84.60
2023-12-30T23:43:43.693Z,84.62
2023-12-30T23:46:10.242Z,84.54
2023-12-30T23:48:36.983Z,84.66
2023-12-30T23:51:03.761Z,85.00
2023-12-30T23:53:30.408Z,84.72
2023-12-30T23:55:57.028Z,85.03
2023-12-30T23:58:23.717Z,84.62
